sensor_id;sensor_type;location;lat;lon;timestamp;P1;durP1;ratioP1;P2;durP2;ratioP2
45354;SDS011;31091;48.758;9.150;2023-02-15T00:01:11;25.87;;;15.67;;
45354;SDS011;31091;48.758;9.150;2023-02-15T00:03:36;29.10;;;17.90;;
45354;SDS011;31091;48.758;9.150;2023-02-15T00:06:02;30.27;;;18.70;;
45354;SDS011;31091;48.758;9.150;2023-02-15T00:08:27;34.40;;;17.92;;
45354;SDS011;31091;48.758;9.150;2023-02-15T00:10:53;31.03;;;17.23;;
45354;SDS011;31091;48.758;9.150;2023-02-15T00:13:18;26.13;;;15.27;;
45354;SDS011;31091;48.758;9.150;2023-02-15T00:15:43;27.00;;;16.63;;
45354;SDS011;31091;48.758;9.150;2023-02-15T00:18:08;30.73;;;16.70;;
45354;SDS011;31091;48.758;9.150;2023-02-15T00:20:34;29.03;;;15.60;;
45354;SDS011;31091;48.758;9.150;2023-02-15T00:22:59;28.67;;;15.75;;
45354;SDS011;31091;48.758;9.150;2023-02-15T00:25:24;23.55;;;14.63;;
45354;SDS011;31091;48.758;9.150;2023-02-15T00:27:50;25.80;;;14.40;;
45354;SDS011;31091;48.758;9.150;2023-02-15T00:30:15;26.65;;;14.88;;
45354;SDS011;31091;48.758;9.150;2023-02-15T00:32:40;28.30;;;14.82;;
45354;SDS011;31091;48.758;9.150;2023-02-15T00:35:05;27.67;;;14.53;;
45354;SDS011;31091;48.758;9.150;2023-02-15T00:37:32;28.42;;;16.17;;
45354;SDS011;31091;48.758;9.150;2023-02-15T00:39:57;26.02;;;15.65;;
45354;SDS011;31091;48.758;9.150;2023-02-15T00:42:22;25.73;;;13.57;;
45354;SDS011;31091;48.758;9.150;2023-02-15T00:44:47;23.95;;;14.18;;
45354;SDS011;31091;48.758;9.150;2023-02-15T00:47:12;24.30;;;15.03;;
45354;SDS011;31091;48.758;9.150;2023-02-15T00:49:38;24.40;;;14.30;;
45354;SDS011;31091;48.758;9.150;2023-02-15T00:52:03;26.17;;;14.37;;
45354;SDS011;31091;48.758;9.150;2023-02-15T00:54:28;25.70;;;15.20;;
45354;SDS011;31091;48.758;9.150;2023-02-15T00:56:53;24.50;;;15.07;;
45354;SDS011;31091;48.758;9.150;2023-02-15T00:59:18;24.30;;;15.17;;
45354;SDS011;31091;48.758;9.150;2023-02-15T01:01:44;23.40;;;14.68;;
45354;SDS011;31091;48.758;9.150;2023-02-15T01:04:09;28.87;;;14.77;;
45354;SDS011;31091;48.758;9.150;2023-02-15T01:06:34;23.70;;;12.87;;
45354;SDS011;31091;48.758;9.150;2023-02-15T01:08:59;25.17;;;14.93;;
45354;SDS011;31091;48.758;9.150;2023-02-15T01:11:24;24.40;;;13.83;;
45354;SDS011;31091;48.758;9.150;2023-02-15T01:13:57;23.43;;;15.00;;
45354;SDS011;31091;48.758;9.150;2023-02-15T01:16:22;24.23;;;14.63;;
45354;SDS011;31091;48.758;9.150;2023-02-15T01:18:48;24.80;;;13.15;;
45354;SDS011;31091;48.758;9.150;2023-02-15T01:21:14;24.23;;;13.30;;
45354;SDS011;31091;48.758;9.150;2023-02-15T01:23:40;22.25;;;12.55;;
45354;SDS011;31091;48.758;9.150;2023-02-15T01:26:06;22.80;;;13.20;;
45354;SDS011;31091;48.758;9.150;2023-02-15T01:28:31;25.20;;;14.45;;
45354;SDS011;31091;48.758;9.150;2023-02-15T01:30:57;24.35;;;13.50;;
45354;SDS011;31091;48.758;9.150;2023-02-15T01:33:22;23.20;;;13.03;;
45354;SDS011;31091;48.758;9.150;2023-02-15T01:35:47;22.07;;;13.63;;
45354;SDS011;31091;48.758;9.150;2023-02-15T01:38:13;30.30;;;13.10;;
45354;SDS011;31091;48.758;9.150;2023-02-15T01:40:38;29.40;;;14.52;;
45354;SDS011;31091;48.758;9.150;2023-02-15T01:43:07;22.30;;;12.68;;
45354;SDS011;31091;48.758;9.150;2023-02-15T01:45:33;22.60;;;12.30;;
45354;SDS011;31091;48.758;9.150;2023-02-15T01:50:33;20.77;;;12.48;;
45354;SDS011;31091;48.758;9.150;2023-02-15T01:53:07;21.35;;;12.00;;
45354;SDS011;31091;48.758;9.150;2023-02-15T01:55:37;21.92;;;12.65;;
45354;SDS011;31091;48.758;9.150;2023-02-15T01:58:03;22.52;;;12.48;;
45354;SDS011;31091;48.758;9.150;2023-02-15T02:00:28;22.90;;;12.70;;
45354;SDS011;31091;48.758;9.150;2023-02-15T02:02:54;22.13;;;12.30;;
45354;SDS011;31091;48.758;9.150;2023-02-15T02:05:20;23.42;;;14.65;;
45354;SDS011;31091;48.758;9.150;2023-02-15T02:07:45;22.00;;;11.55;;
45354;SDS011;31091;48.758;9.150;2023-02-15T02:10:12;22.10;;;11.43;;
45354;SDS011;31091;48.758;9.150;2023-02-15T02:12:38;21.38;;;13.57;;
45354;SDS011;31091;48.758;9.150;2023-02-15T02:15:05;23.98;;;12.90;;
45354;SDS011;31091;48.758;9.150;2023-02-15T02:20:25;20.92;;;12.73;;
45354;SDS011;31091;48.758;9.150;2023-02-15T02:23:02;18.33;;;11.73;;
45354;SDS011;31091;48.758;9.150;2023-02-15T02:28:11;22.97;;;13.60;;
45354;SDS011;31091;48.758;9.150;2023-02-15T02:38:20;23.73;;;13.57;;
45354;SDS011;31091;48.758;9.150;2023-02-15T02:43:20;20.45;;;10.95;;
45354;SDS011;31091;48.758;9.150;2023-02-15T02:46:10;22.00;;;12.27;;
45354;SDS011;31091;48.758;9.150;2023-02-15T02:48:32;20.67;;;12.63;;
45354;SDS011;31091;48.758;9.150;2023-02-15T02:50:58;23.20;;;12.48;;
45354;SDS011;31091;48.758;9.150;2023-02-15T02:53:23;21.63;;;10.83;;
45354;SDS011;31091;48.758;9.150;2023-02-15T02:56:23;20.63;;;10.75;;
45354;SDS011;31091;48.758;9.150;2023-02-15T03:01:22;21.27;;;12.03;;
45354;SDS011;31091;48.758;9.150;2023-02-15T03:03:50;23.63;;;11.88;;
45354;SDS011;31091;48.758;9.150;2023-02-15T03:06:27;17.50;;;11.30;;
45354;SDS011;31091;48.758;9.150;2023-02-15T03:08:55;21.90;;;11.93;;
45354;SDS011;31091;48.758;9.150;2023-02-15T03:11:22;19.67;;;11.30;;
45354;SDS011;31091;48.758;9.150;2023-02-15T03:13:47;21.00;;;11.45;;
45354;SDS011;31091;48.758;9.150;2023-02-15T03:16:13;22.50;;;12.43;;
45354;SDS011;31091;48.758;9.150;2023-02-15T03:18:58;21.23;;;12.75;;
45354;SDS011;31091;48.758;9.150;2023-02-15T03:21:37;21.25;;;11.98;;
45354;SDS011;31091;48.758;9.150;2023-02-15T03:24:09;21.98;;;11.73;;
45354;SDS011;31091;48.758;9.150;2023-02-15T03:26:36;20.60;;;11.93;;
45354;SDS011;31091;48.758;9.150;2023-02-15T03:29:02;22.98;;;12.05;;
45354;SDS011;31091;48.758;9.150;2023-02-15T03:31:29;23.30;;;13.45;;
45354;SDS011;31091;48.758;9.150;2023-02-15T03:33:58;18.20;;;10.63;;
45354;SDS011;31091;48.758;9.150;2023-02-15T03:39:01;19.88;;;11.45;;
45354;SDS011;31091;48.758;9.150;2023-02-15T03:41:30;21.75;;;12.10;;
45354;SDS011;31091;48.758;9.150;2023-02-15T03:44:02;18.90;;;10.80;;
45354;SDS011;31091;48.758;9.150;2023-02-15T03:46:32;17.10;;;10.40;;
45354;SDS011;31091;48.758;9.150;2023-02-15T03:49:06;19.80;;;11.15;;
45354;SDS011;31091;48.758;9.150;2023-02-15T03:51:33;21.60;;;11.30;;
45354;SDS011;31091;48.758;9.150;2023-02-15T03:56:33;18.65;;;11.05;;
45354;SDS011;31091;48.758;9.150;2023-02-15T03:58:58;19.77;;;10.35;;
45354;SDS011;31091;48.758;9.150;2023-02-15T04:04:27;18.63;;;10.93;;
45354;SDS011;31091;48.758;9.150;2023-02-15T04:06:53;22.25;;;10.10;;
45354;SDS011;31091;48.758;9.150;2023-02-15T04:09:18;20.95;;;11.75;;
45354;SDS011;31091;48.758;9.150;2023-02-15T04:12:02;20.52;;;11.00;;
45354;SDS011;31091;48.758;9.150;2023-02-15T04:14:27;22.55;;;12.77;;
45354;SDS011;31091;48.758;9.150;2023-02-15T04:17:11;17.83;;;11.40;;
45354;SDS011;31091;48.758;9.150;2023-02-15T04:19:36;20.43;;;10.87;;
45354;SDS011;31091;48.758;9.150;2023-02-15T04:22:20;23.40;;;12.40;;
45354;SDS011;31091;48.758;9.150;2023-02-15T04:25:04;23.98;;;11.80;;
45354;SDS011;31091;48.758;9.150;2023-02-15T04:27:51;20.85;;;11.77;;
45354;SDS011;31091;48.758;9.150;2023-02-15T04:30:17;19.83;;;11.27;;
45354;SDS011;31091;48.758;9.150;2023-02-15T04:32:43;20.75;;;11.98;;
45354;SDS011;31091;48.758;9.150;2023-02-15T04:35:08;19.10;;;10.80;;
45354;SDS011;31091;48.758;9.150;2023-02-15T04:37:34;21.10;;;12.23;;
45354;SDS011;31091;48.758;9.150;2023-02-15T04:39:59;23.15;;;12.15;;
45354;SDS011;31091;48.758;9.150;2023-02-15T04:42:25;19.17;;;10.73;;
45354;SDS011;31091;48.758;9.150;2023-02-15T04:44:50;20.35;;;12.23;;
45354;SDS011;31091;48.758;9.150;2023-02-15T04:47:16;20.05;;;11.85;;
45354;SDS011;31091;48.758;9.150;2023-02-15T04:49:41;16.00;;;10.17;;
45354;SDS011;31091;48.758;9.150;2023-02-15T04:52:06;20.93;;;11.40;;
45354;SDS011;31091;48.758;9.150;2023-02-15T04:54:31;19.17;;;11.30;;
45354;SDS011;31091;48.758;9.150;2023-02-15T04:56:56;22.93;;;11.90;;
45354;SDS011;31091;48.758;9.150;2023-02-15T04:59:22;20.03;;;12.47;;
45354;SDS011;31091;48.758;9.150;2023-02-15T05:01:47;16.90;;;10.57;;
45354;SDS011;31091;48.758;9.150;2023-02-15T05:04:12;21.73;;;10.60;;
45354;SDS011;31091;48.758;9.150;2023-02-15T05:06:37;21.20;;;12.23;;
45354;SDS011;31091;48.758;9.150;2023-02-15T05:09:02;18.58;;;11.13;;
45354;SDS011;31091;48.758;9.150;2023-02-15T05:11:28;22.67;;;10.70;;
45354;SDS011;31091;48.758;9.150;2023-02-15T05:13:53;20.17;;;10.27;;
45354;SDS011;31091;48.758;9.150;2023-02-15T05:16:18;20.10;;;10.87;;
45354;SDS011;31091;48.758;9.150;2023-02-15T05:18:43;19.97;;;11.63;;
45354;SDS011;31091;48.758;9.150;2023-02-15T05:21:09;22.15;;;11.48;;
45354;SDS011;31091;48.758;9.150;2023-02-15T05:23:34;21.67;;;11.45;;
45354;SDS011;31091;48.758;9.150;2023-02-15T05:25:59;23.50;;;13.48;;
45354;SDS011;31091;48.758;9.150;2023-02-15T05:28:43;21.25;;;12.13;;
45354;SDS011;31091;48.758;9.150;2023-02-15T05:31:12;20.05;;;11.68;;
45354;SDS011;31091;48.758;9.150;2023-02-15T05:33:38;21.33;;;10.98;;
45354;SDS011;31091;48.758;9.150;2023-02-15T05:36:03;20.88;;;11.13;;
45354;SDS011;31091;48.758;9.150;2023-02-15T05:38:29;20.83;;;12.38;;
45354;SDS011;31091;48.758;9.150;2023-02-15T05:40:55;25.02;;;12.43;;
45354;SDS011;31091;48.758;9.150;2023-02-15T05:43:20;24.42;;;11.35;;
45354;SDS011;31091;48.758;9.150;2023-02-15T05:45:46;24.90;;;11.68;;
45354;SDS011;31091;48.758;9.150;2023-02-15T05:48:12;17.80;;;10.30;;
45354;SDS011;31091;48.758;9.150;2023-02-15T05:50:37;20.97;;;11.90;;
45354;SDS011;31091;48.758;9.150;2023-02-15T05:53:02;19.70;;;11.07;;
45354;SDS011;31091;48.758;9.150;2023-02-15T05:55:27;22.23;;;11.27;;
45354;SDS011;31091;48.758;9.150;2023-02-15T05:57:53;20.30;;;10.57;;
45354;SDS011;31091;48.758;9.150;2023-02-15T06:00:18;24.40;;;11.63;;
45354;SDS011;31091;48.758;9.150;2023-02-15T06:02:43;24.23;;;12.38;;
45354;SDS011;31091;48.758;9.150;2023-02-15T06:05:08;22.23;;;11.23;;
45354;SDS011;31091;48.758;9.150;2023-02-15T06:07:34;22.38;;;12.38;;
45354;SDS011;31091;48.758;9.150;2023-02-15T06:09:59;23.27;;;11.77;;
45354;SDS011;31091;48.758;9.150;2023-02-15T06:12:24;24.90;;;12.32;;
45354;SDS011;31091;48.758;9.150;2023-02-15T06:14:49;23.67;;;11.70;;
45354;SDS011;31091;48.758;9.150;2023-02-15T06:17:15;29.02;;;12.60;;
45354;SDS011;31091;48.758;9.150;2023-02-15T06:19:41;20.45;;;11.27;;
45354;SDS011;31091;48.758;9.150;2023-02-15T06:22:06;23.23;;;12.07;;
45354;SDS011;31091;48.758;9.150;2023-02-15T06:24:32;22.25;;;11.60;;
45354;SDS011;31091;48.758;9.150;2023-02-15T06:26:57;19.15;;;11.30;;
45354;SDS011;31091;48.758;9.150;2023-02-15T06:29:22;22.30;;;11.65;;
45354;SDS011;31091;48.758;9.150;2023-02-15T06:31:48;25.77;;;12.73;;
45354;SDS011;31091;48.758;9.150;2023-02-15T06:34:13;19.83;;;11.73;;
45354;SDS011;31091;48.758;9.150;2023-02-15T06:36:38;24.83;;;12.65;;
45354;SDS011;31091;48.758;9.150;2023-02-15T06:39:03;21.20;;;11.40;;
45354;SDS011;31091;48.758;9.150;2023-02-15T06:41:29;18.40;;;11.27;;
45354;SDS011;31091;48.758;9.150;2023-02-15T06:43:54;21.27;;;11.82;;
45354;SDS011;31091;48.758;9.150;2023-02-15T06:46:19;21.08;;;12.13;;
45354;SDS011;31091;48.758;9.150;2023-02-15T06:48:44;20.30;;;12.33;;
45354;SDS011;31091;48.758;9.150;2023-02-15T06:51:09;19.47;;;11.77;;
45354;SDS011;31091;48.758;9.150;2023-02-15T06:53:35;28.37;;;13.10;;
45354;SDS011;31091;48.758;9.150;2023-02-15T06:56:04;18.73;;;11.85;;
45354;SDS011;31091;48.758;9.150;2023-02-15T06:58:34;21.58;;;10.98;;
45354;SDS011;31091;48.758;9.150;2023-02-15T07:01:00;21.73;;;12.35;;
45354;SDS011;31091;48.758;9.150;2023-02-15T07:03:25;23.20;;;12.27;;
45354;SDS011;31091;48.758;9.150;2023-02-15T07:05:54;22.87;;;12.13;;
45354;SDS011;31091;48.758;9.150;2023-02-15T07:08:19;22.27;;;11.88;;
45354;SDS011;31091;48.758;9.150;2023-02-15T07:10:45;26.45;;;12.35;;
45354;SDS011;31091;48.758;9.150;2023-02-15T07:13:10;24.67;;;12.68;;
45354;SDS011;31091;48.758;9.150;2023-02-15T07:15:35;21.27;;;12.87;;
45354;SDS011;31091;48.758;9.150;2023-02-15T07:18:00;24.60;;;12.90;;
45354;SDS011;31091;48.758;9.150;2023-02-15T07:20:25;22.87;;;11.63;;
45354;SDS011;31091;48.758;9.150;2023-02-15T07:22:51;23.65;;;12.43;;
45354;SDS011;31091;48.758;9.150;2023-02-15T07:25:16;21.85;;;12.40;;
45354;SDS011;31091;48.758;9.150;2023-02-15T07:27:41;20.75;;;11.55;;
45354;SDS011;31091;48.758;9.150;2023-02-15T07:30:08;22.48;;;12.70;;
45354;SDS011;31091;48.758;9.150;2023-02-15T07:32:34;22.88;;;13.35;;
45354;SDS011;31091;48.758;9.150;2023-02-15T07:35:00;22.48;;;12.75;;
45354;SDS011;31091;48.758;9.150;2023-02-15T07:37:25;26.00;;;15.70;;
45354;SDS011;31091;48.758;9.150;2023-02-15T07:39:51;22.70;;;12.88;;
45354;SDS011;31091;48.758;9.150;2023-02-15T07:42:16;24.83;;;12.97;;
45354;SDS011;31091;48.758;9.150;2023-02-15T07:44:42;23.05;;;12.63;;
45354;SDS011;31091;48.758;9.150;2023-02-15T07:47:07;22.55;;;11.93;;
45354;SDS011;31091;48.758;9.150;2023-02-15T07:49:33;27.50;;;13.27;;
45354;SDS011;31091;48.758;9.150;2023-02-15T07:52:00;22.50;;;12.63;;
45354;SDS011;31091;48.758;9.150;2023-02-15T07:54:25;24.42;;;12.88;;
45354;SDS011;31091;48.758;9.150;2023-02-15T07:56:50;24.00;;;12.27;;
45354;SDS011;31091;48.758;9.150;2023-02-15T07:59:15;24.00;;;13.25;;
45354;SDS011;31091;48.758;9.150;2023-02-15T08:01:41;22.33;;;13.13;;
45354;SDS011;31091;48.758;9.150;2023-02-15T08:04:07;23.48;;;12.60;;
45354;SDS011;31091;48.758;9.150;2023-02-15T08:06:33;21.38;;;12.15;;
45354;SDS011;31091;48.758;9.150;2023-02-15T08:08:59;21.42;;;13.32;;
45354;SDS011;31091;48.758;9.150;2023-02-15T08:11:29;20.27;;;12.73;;
45354;SDS011;31091;48.758;9.150;2023-02-15T08:14:00;23.92;;;12.32;;
45354;SDS011;31091;48.758;9.150;2023-02-15T08:19:03;23.38;;;13.93;;
45354;SDS011;31091;48.758;9.150;2023-02-15T08:21:29;23.00;;;13.05;;
45354;SDS011;31091;48.758;9.150;2023-02-15T08:23:55;20.85;;;13.27;;
45354;SDS011;31091;48.758;9.150;2023-02-15T08:26:21;26.75;;;14.48;;
45354;SDS011;31091;48.758;9.150;2023-02-15T08:28:46;22.40;;;13.05;;
45354;SDS011;31091;48.758;9.150;2023-02-15T08:31:12;22.93;;;14.13;;
45354;SDS011;31091;48.758;9.150;2023-02-15T08:33:39;24.08;;;14.38;;
45354;SDS011;31091;48.758;9.150;2023-02-15T08:36:05;23.40;;;13.68;;
45354;SDS011;31091;48.758;9.150;2023-02-15T08:38:30;27.70;;;15.13;;
45354;SDS011;31091;48.758;9.150;2023-02-15T08:40:56;24.40;;;14.38;;
45354;SDS011;31091;48.758;9.150;2023-02-15T08:43:21;27.90;;;14.77;;
45354;SDS011;31091;48.758;9.150;2023-02-15T08:45:47;25.20;;;13.95;;
45354;SDS011;31091;48.758;9.150;2023-02-15T08:48:12;27.27;;;15.70;;
45354;SDS011;31091;48.758;9.150;2023-02-15T08:50:37;27.87;;;13.03;;
45354;SDS011;31091;48.758;9.150;2023-02-15T08:53:02;25.80;;;16.33;;
45354;SDS011;31091;48.758;9.150;2023-02-15T08:55:28;24.52;;;15.68;;
45354;SDS011;31091;48.758;9.150;2023-02-15T08:57:53;28.73;;;14.63;;
45354;SDS011;31091;48.758;9.150;2023-02-15T09:00:20;28.77;;;14.48;;
45354;SDS011;31091;48.758;9.150;2023-02-15T09:02:47;28.25;;;16.65;;
45354;SDS011;31091;48.758;9.150;2023-02-15T09:05:12;28.17;;;17.00;;
45354;SDS011;31091;48.758;9.150;2023-02-15T09:07:38;27.08;;;15.43;;
45354;SDS011;31091;48.758;9.150;2023-02-15T09:10:03;29.77;;;16.92;;
45354;SDS011;31091;48.758;9.150;2023-02-15T09:12:29;28.45;;;15.38;;
45354;SDS011;31091;48.758;9.150;2023-02-15T09:14:54;32.47;;;15.53;;
45354;SDS011;31091;48.758;9.150;2023-02-15T09:17:19;26.55;;;16.35;;
45354;SDS011;31091;48.758;9.150;2023-02-15T09:19:44;27.67;;;16.30;;
45354;SDS011;31091;48.758;9.150;2023-02-15T09:22:10;27.10;;;17.20;;
45354;SDS011;31091;48.758;9.150;2023-02-15T09:24:35;27.75;;;15.93;;
45354;SDS011;31091;48.758;9.150;2023-02-15T09:27:00;29.13;;;15.67;;
45354;SDS011;31091;48.758;9.150;2023-02-15T09:29:25;26.37;;;16.33;;
45354;SDS011;31091;48.758;9.150;2023-02-15T09:31:50;28.57;;;16.63;;
45354;SDS011;31091;48.758;9.150;2023-02-15T09:34:17;27.27;;;16.13;;
45354;SDS011;31091;48.758;9.150;2023-02-15T09:36:42;27.02;;;16.48;;
45354;SDS011;31091;48.758;9.150;2023-02-15T09:39:15;28.27;;;16.05;;
45354;SDS011;31091;48.758;9.150;2023-02-15T09:41:51;26.73;;;15.45;;
45354;SDS011;31091;48.758;9.150;2023-02-15T09:44:26;26.73;;;15.83;;
45354;SDS011;31091;48.758;9.150;2023-02-15T09:50:00;24.73;;;16.30;;
45354;SDS011;31091;48.758;9.150;2023-02-15T09:52:31;27.90;;;17.73;;
45354;SDS011;31091;48.758;9.150;2023-02-15T10:00:30;26.63;;;16.85;;
45354;SDS011;31091;48.758;9.150;2023-02-15T10:13:19;28.08;;;16.85;;
45354;SDS011;31091;48.758;9.150;2023-02-15T10:16:30;26.73;;;16.20;;
45354;SDS011;31091;48.758;9.150;2023-02-15T10:21:19;26.70;;;16.37;;
45354;SDS011;31091;48.758;9.150;2023-02-15T10:26:17;23.60;;;15.88;;
45354;SDS011;31091;48.758;9.150;2023-02-15T10:31:12;23.13;;;15.53;;
45354;SDS011;31091;48.758;9.150;2023-02-15T10:33:42;26.02;;;17.40;;
45354;SDS011;31091;48.758;9.150;2023-02-15T10:36:14;25.30;;;16.10;;
45354;SDS011;31091;48.758;9.150;2023-02-15T10:46:28;25.55;;;16.35;;
45354;SDS011;31091;48.758;9.150;2023-02-15T10:51:34;22.13;;;16.13;;
45354;SDS011;31091;48.758;9.150;2023-02-15T10:54:14;24.77;;;16.75;;
45354;SDS011;31091;48.758;9.150;2023-02-15T10:57:03;27.52;;;16.60;;
45354;SDS011;31091;48.758;9.150;2023-02-15T10:59:49;27.63;;;17.50;;
45354;SDS011;31091;48.758;9.150;2023-02-15T11:05:15;26.15;;;17.25;;
45354;SDS011;31091;48.758;9.150;2023-02-15T11:07:44;27.75;;;17.52;;
45354;SDS011;31091;48.758;9.150;2023-02-15T11:12:51;29.75;;;17.35;;
45354;SDS011;31091;48.758;9.150;2023-02-15T11:17:45;28.20;;;17.73;;
45354;SDS011;31091;48.758;9.150;2023-02-15T11:20:16;30.08;;;18.27;;
45354;SDS011;31091;48.758;9.150;2023-02-15T11:22:46;27.98;;;18.23;;
45354;SDS011;31091;48.758;9.150;2023-02-15T11:25:18;27.95;;;16.73;;
45354;SDS011;31091;48.758;9.150;2023-02-15T11:27:44;30.50;;;18.00;;
45354;SDS011;31091;48.758;9.150;2023-02-15T11:30:11;29.90;;;17.98;;
45354;SDS011;31091;48.758;9.150;2023-02-15T11:32:42;25.60;;;16.25;;
45354;SDS011;31091;48.758;9.150;2023-02-15T11:37:39;26.27;;;17.58;;
45354;SDS011;31091;48.758;9.150;2023-02-15T11:40:14;28.55;;;18.25;;
45354;SDS011;31091;48.758;9.150;2023-02-15T11:42:40;30.48;;;18.10;;
45354;SDS011;31091;48.758;9.150;2023-02-15T11:47:50;26.08;;;17.25;;
45354;SDS011;31091;48.758;9.150;2023-02-15T11:50:16;26.67;;;16.52;;
45354;SDS011;31091;48.758;9.150;2023-02-15T11:52:43;24.83;;;16.60;;
45354;SDS011;31091;48.758;9.150;2023-02-15T11:55:12;29.52;;;17.05;;
45354;SDS011;31091;48.758;9.150;2023-02-15T11:57:39;26.25;;;17.08;;
45354;SDS011;31091;48.758;9.150;2023-02-15T12:00:10;24.73;;;16.83;;
45354;SDS011;31091;48.758;9.150;2023-02-15T12:02:38;28.90;;;16.45;;
45354;SDS011;31091;48.758;9.150;2023-02-15T12:05:06;25.70;;;16.75;;
45354;SDS011;31091;48.758;9.150;2023-02-15T12:07:35;27.50;;;17.73;;
45354;SDS011;31091;48.758;9.150;2023-02-15T12:10:10;27.15;;;16.75;;
45354;SDS011;31091;48.758;9.150;2023-02-15T12:12:39;27.40;;;16.92;;
45354;SDS011;31091;48.758;9.150;2023-02-15T12:15:05;27.23;;;17.55;;
45354;SDS011;31091;48.758;9.150;2023-02-15T12:17:32;30.90;;;18.80;;
45354;SDS011;31091;48.758;9.150;2023-02-15T12:20:00;28.77;;;17.73;;
45354;SDS011;31091;48.758;9.150;2023-02-15T12:22:30;25.95;;;15.80;;
45354;SDS011;31091;48.758;9.150;2023-02-15T12:24:58;25.13;;;16.58;;
45354;SDS011;31091;48.758;9.150;2023-02-15T12:27:26;29.20;;;17.75;;
45354;SDS011;31091;48.758;9.150;2023-02-15T12:29:59;28.00;;;17.38;;
45354;SDS011;31091;48.758;9.150;2023-02-15T12:32:28;26.00;;;17.52;;
45354;SDS011;31091;48.758;9.150;2023-02-15T12:35:08;27.90;;;18.05;;
45354;SDS011;31091;48.758;9.150;2023-02-15T12:37:35;27.85;;;17.63;;
45354;SDS011;31091;48.758;9.150;2023-02-15T12:40:02;30.92;;;18.45;;
45354;SDS011;31091;48.758;9.150;2023-02-15T12:42:28;28.73;;;16.98;;
45354;SDS011;31091;48.758;9.150;2023-02-15T12:45:20;25.58;;;17.60;;
45354;SDS011;31091;48.758;9.150;2023-02-15T12:47:45;26.05;;;17.23;;
45354;SDS011;31091;48.758;9.150;2023-02-15T12:50:23;25.80;;;16.75;;
45354;SDS011;31091;48.758;9.150;2023-02-15T12:52:51;26.77;;;18.77;;
45354;SDS011;31091;48.758;9.150;2023-02-15T12:57:44;28.67;;;18.20;;
45354;SDS011;31091;48.758;9.150;2023-02-15T13:02:44;24.58;;;17.25;;
45354;SDS011;31091;48.758;9.150;2023-02-15T13:05:17;26.25;;;17.83;;
45354;SDS011;31091;48.758;9.150;2023-02-15T13:07:49;24.85;;;17.35;;
45354;SDS011;31091;48.758;9.150;2023-02-15T13:10:25;27.63;;;18.58;;
45354;SDS011;31091;48.758;9.150;2023-02-15T13:12:51;24.48;;;17.35;;
45354;SDS011;31091;48.758;9.150;2023-02-15T13:15:26;24.25;;;15.70;;
45354;SDS011;31091;48.758;9.150;2023-02-15T13:17:52;26.50;;;18.25;;
45354;SDS011;31091;48.758;9.150;2023-02-15T13:20:18;31.60;;;18.98;;
45354;SDS011;31091;48.758;9.150;2023-02-15T13:22:46;32.13;;;17.95;;
45354;SDS011;31091;48.758;9.150;2023-02-15T13:25:14;30.90;;;18.20;;
45354;SDS011;31091;48.758;9.150;2023-02-15T13:30:16;27.10;;;17.50;;
45354;SDS011;31091;48.758;9.150;2023-02-15T13:32:44;26.55;;;16.88;;
45354;SDS011;31091;48.758;9.150;2023-02-15T13:35:13;25.65;;;17.52;;
45354;SDS011;31091;48.758;9.150;2023-02-15T13:43:13;29.55;;;18.30;;
45354;SDS011;31091;48.758;9.150;2023-02-15T13:45:40;27.50;;;17.77;;
45354;SDS011;31091;48.758;9.150;2023-02-15T13:50:49;26.05;;;17.77;;
45354;SDS011;31091;48.758;9.150;2023-02-15T14:01:09;24.50;;;17.38;;
45354;SDS011;31091;48.758;9.150;2023-02-15T14:19:25;28.20;;;16.85;;
45354;SDS011;31091;48.758;9.150;2023-02-15T14:21:59;25.50;;;16.33;;
45354;SDS011;31091;48.758;9.150;2023-02-15T14:24:29;24.63;;;16.27;;
45354;SDS011;31091;48.758;9.150;2023-02-15T14:31:59;22.67;;;15.13;;
45354;SDS011;31091;48.758;9.150;2023-02-15T14:34:30;22.90;;;15.98;;
45354;SDS011;31091;48.758;9.150;2023-02-15T14:36:56;25.63;;;14.98;;
45354;SDS011;31091;48.758;9.150;2023-02-15T14:39:42;24.27;;;15.82;;
45354;SDS011;31091;48.758;9.150;2023-02-15T14:42:35;26.05;;;15.35;;
45354;SDS011;31091;48.758;9.150;2023-02-15T14:45:06;23.80;;;14.15;;
45354;SDS011;31091;48.758;9.150;2023-02-15T14:47:43;20.85;;;15.00;;
45354;SDS011;31091;48.758;9.150;2023-02-15T14:55:36;23.73;;;16.27;;
45354;SDS011;31091;48.758;9.150;2023-02-15T14:58:02;25.33;;;16.45;;
45354;SDS011;31091;48.758;9.150;2023-02-15T15:00:31;22.53;;;14.93;;
45354;SDS011;31091;48.758;9.150;2023-02-15T15:02:57;23.42;;;14.55;;
45354;SDS011;31091;48.758;9.150;2023-02-15T15:05:29;29.50;;;16.08;;
45354;SDS011;31091;48.758;9.150;2023-02-15T15:07:57;23.73;;;15.57;;
45354;SDS011;31091;48.758;9.150;2023-02-15T15:15:32;26.80;;;16.23;;
45354;SDS011;31091;48.758;9.150;2023-02-15T15:18:07;23.65;;;15.77;;
45354;SDS011;31091;48.758;9.150;2023-02-15T15:25:45;23.52;;;15.25;;
45354;SDS011;31091;48.758;9.150;2023-02-15T15:30:55;26.65;;;15.35;;
45354;SDS011;31091;48.758;9.150;2023-02-15T15:38:39;23.13;;;14.40;;
45354;SDS011;31091;48.758;9.150;2023-02-15T15:41:17;21.15;;;13.70;;
45354;SDS011;31091;48.758;9.150;2023-02-15T15:49:08;20.42;;;13.77;;
45354;SDS011;31091;48.758;9.150;2023-02-15T15:51:35;24.10;;;15.43;;
45354;SDS011;31091;48.758;9.150;2023-02-15T15:54:03;27.23;;;14.40;;
45354;SDS011;31091;48.758;9.150;2023-02-15T15:56:30;26.90;;;13.88;;
45354;SDS011;31091;48.758;9.150;2023-02-15T15:58:58;28.17;;;13.40;;
45354;SDS011;31091;48.758;9.150;2023-02-15T16:01:26;25.92;;;13.88;;
45354;SDS011;31091;48.758;9.150;2023-02-15T16:03:52;57.15;;;15.57;;
45354;SDS011;31091;48.758;9.150;2023-02-15T16:06:28;32.58;;;13.73;;
45354;SDS011;31091;48.758;9.150;2023-02-15T16:08:53;28.38;;;13.95;;
45354;SDS011;31091;48.758;9.150;2023-02-15T16:11:21;21.38;;;13.68;;
45354;SDS011;31091;48.758;9.150;2023-02-15T16:13:47;23.02;;;14.02;;
45354;SDS011;31091;48.758;9.150;2023-02-15T16:16:13;23.33;;;13.27;;
45354;SDS011;31091;48.758;9.150;2023-02-15T16:18:38;25.10;;;13.07;;
45354;SDS011;31091;48.758;9.150;2023-02-15T16:21:12;28.42;;;14.35;;
45354;SDS011;31091;48.758;9.150;2023-02-15T16:26:18;22.33;;;13.05;;
45354;SDS011;31091;48.758;9.150;2023-02-15T16:28:50;26.70;;;13.93;;
45354;SDS011;31091;48.758;9.150;2023-02-15T16:31:19;25.15;;;14.75;;
45354;SDS011;31091;48.758;9.150;2023-02-15T16:33:47;23.35;;;13.32;;
45354;SDS011;31091;48.758;9.150;2023-02-15T16:36:20;20.17;;;13.35;;
45354;SDS011;31091;48.758;9.150;2023-02-15T16:41:14;23.50;;;14.05;;
45354;SDS011;31091;48.758;9.150;2023-02-15T16:43:40;25.15;;;14.65;;
45354;SDS011;31091;48.758;9.150;2023-02-15T16:46:10;32.15;;;15.75;;
45354;SDS011;31091;48.758;9.150;2023-02-15T16:48:39;21.92;;;14.48;;
45354;SDS011;31091;48.758;9.150;2023-02-15T16:51:05;23.42;;;13.38;;
45354;SDS011;31091;48.758;9.150;2023-02-15T16:53:30;23.75;;;13.73;;
45354;SDS011;31091;48.758;9.150;2023-02-15T16:55:59;24.67;;;14.35;;
45354;SDS011;31091;48.758;9.150;2023-02-15T17:00:50;25.95;;;13.70;;
45354;SDS011;31091;48.758;9.150;2023-02-15T17:03:21;23.07;;;13.63;;
45354;SDS011;31091;48.758;9.150;2023-02-15T17:05:48;25.58;;;14.93;;
45354;SDS011;31091;48.758;9.150;2023-02-15T17:10:40;22.45;;;13.20;;